Time;durP1;ratioP1;P1;durP2;ratioP2;P2;SDS_P1;SDS_P2;PMS_P1;PMS_P2;Temp;Humidity;BMP_temperature;BMP_pressure;BME280_temperature;BME280_humidity;BME280_pressure;Samples;Min_cycle;Max_cycle;Signal;HPM_P1;HPM_P2
2023/01/10 00:02:26;;;;;;;10.15;5.45;;;;;;;-6.82;51.63;101371.57;1677962;85;21217;-77
2023/01/10 00:05:31;;;;;;;15.00;6.72;;;;;;;-6.73;51.81;101360.26;1677924;85;21212;-77
2023/01/10 00:08:37;;;;;;;10.43;5.87;;;;;;;-6.80;51.67;101361.78;1679102;85;21712;-77
2023/01/10 00:15:05;;;;;;;11.75;6.67;;;;;;;-6.73;51.46;101363.34;1679146;85;21212;-78
2023/01/10 00:18:11;;;;;;;13.78;8.55;;;;;;;-6.83;51.63;101364.52;1679382;84;21188;-79
2023/01/10 00:21:16;;;;;;;17.37;7.95;;;;;;;-6.80;51.52;101369.77;1678100;85;21216;-77
2023/01/10 00:24:22;;;;;;;19.10;9.33;;;;;;;-5.89;49.91;101373.36;1679268;85;21256;-78
2023/01/10 00:27:29;;;;;;;19.02;8.35;;;;;;;-5.84;49.32;101377.62;1680090;85;21219;-77
2023/01/10 00:30:29;;;;;;;12.53;6.47;;;;;;;-6.01;49.17;101378.19;1678689;85;21803;-77
2023/01/10 00:33:36;;;;;;;13.70;7.95;;;;;;;-5.85;49.11;101375.02;1679450;85;21208;-78
2023/01/10 00:36:44;;;;;;;16.45;8.28;;;;;;;-5.94;49.25;101373.07;1680288;85;21180;-78
2023/01/10 00:39:50;;;;;;;11.20;6.92;;;;;;;-6.14;49.52;101366.59;1678306;84;21256;-79
2023/01/10 00:46:19;;;;;;;13.20;6.30;;;;;;;-6.08;49.49;101365.95;1637611;87;22499;-77
2023/01/10 00:49:25;;;;;;;14.20;8.63;;;;;;;-6.17;49.37;101374.20;1637556;87;21232;-76
2023/01/10 00:52:32;;;;;;;12.65;7.65;;;;;;;-6.27;49.41;101363.41;1637576;87;21596;-76
2023/01/10 00:55:36;;;;;;;13.78;8.75;;;;;;;-6.17;49.02;101367.55;1642223;84;21264;-78
2023/01/10 00:58:43;;;;;;;10.55;5.92;;;;;;;-6.20;49.15;101362.33;1674130;85;21536;-77
2023/01/10 01:01:48;;;;;;;10.53;6.50;;;;;;;-6.19;49.15;101374.72;1688508;85;21268;-77
2023/01/10 01:04:54;;;;;;;17.10;8.70;;;;;;;-6.15;48.97;101361.73;1674739;85;21769;-77
2023/01/10 01:08:00;;;;;;;11.03;5.95;;;;;;;-6.38;49.60;101357.53;1689409;85;21200;-77
2023/01/10 01:11:06;;;;;;;13.55;7.53;;;;;;;-6.52;49.89;101357.91;1667530;85;21253;-77
2023/01/10 01:14:12;;;;;;;12.95;10.05;;;;;;;-6.18;49.49;101361.35;1689504;85;21810;-77
2023/01/10 01:17:18;;;;;;;10.28;6.55;;;;;;;-6.03;49.01;101374.67;1689317;85;22511;-77
2023/01/10 01:20:23;;;;;;;10.40;6.37;;;;;;;-6.17;49.40;101370.20;1690559;85;21184;-78
2023/01/10 01:23:29;;;;;;;16.00;9.03;;;;;;;-6.17;49.21;101373.74;1690643;85;21251;-77
2023/01/10 01:26:35;;;;;;;12.98;8.45;;;;;;;-6.18;49.24;101380.45;1690563;85;21227;-77
2023/01/10 01:29:40;;;;;;;12.28;8.63;;;;;;;-6.23;49.01;101389.91;1689912;85;21235;-76
2023/01/10 01:32:46;;;;;;;15.03;7.45;;;;;;;-6.39;49.28;101387.28;1690584;85;21211;-77
2023/01/10 01:35:52;;;;;;;10.10;7.15;;;;;;;-6.21;49.24;101389.85;1690580;85;21193;-77
2023/01/10 01:38:59;;;;;;;11.43;6.65;;;;;;;-6.14;48.93;101406.09;1690270;83;21247;-76
2023/01/10 01:42:05;;;;;;;16.25;9.38;;;;;;;-6.19;48.90;101403.55;1689777;85;21216;-77
2023/01/10 01:45:22;;;;;;;10.93;7.65;;;;;;;-6.24;48.84;101419.25;1689796;85;21243;-76
2023/01/10 01:48:41;;;;;;;11.68;6.72;;;;;;;-6.10;48.81;101418.41;1690567;85;21244;-77
2023/01/10 01:51:47;;;;;;;13.38;7.78;;;;;;;-6.22;48.43;101417.41;1689941;85;21798;-77
2023/01/10 01:54:53;;;;;;;12.10;7.75;;;;;;;-6.27;48.66;101418.00;1690465;85;21207;-76
2023/01/10 01:57:58;;;;;;;13.72;7.72;;;;;;;-6.32;48.66;101409.27;1693429;84;21290;-77
2023/01/10 02:01:03;;;;;;;11.53;6.70;;;;;;;-6.45;48.83;101418.91;1697032;84;21246;-77
2023/01/10 02:04:14;;;;;;;14.23;6.15;;;;;;;-6.63;49.22;101406.13;1698287;84;21192;-77
2023/01/10 02:07:19;;;;;;;16.73;8.10;;;;;;;-6.67;49.35;101401.79;1698287;84;21211;-76
2023/01/10 02:10:30;;;;;;;11.40;8.48;;;;;;;-6.72;49.63;101406.36;1696926;84;21761;-77
2023/01/10 02:13:36;;;;;;;8.50;5.45;;;;;;;-6.77;49.66;101418.92;1698270;84;21825;-77
2023/01/10 02:16:41;;;;;;;11.25;6.25;;;;;;;-6.87;50.00;101410.72;1698282;84;21207;-77
2023/01/10 02:19:58;;;;;;;10.80;6.30;;;;;;;-6.81;49.98;101403.48;1698266;84;21203;-77
2023/01/10 02:23:42;;;;;;;8.90;6.33;;;;;;;-6.69;49.77;101397.81;1697229;84;21207;-77
2023/01/10 02:27:24;;;;;;;11.95;7.10;;;;;;;-6.69;49.68;101414.24;1698261;84;21211;-77
2023/01/10 02:30:46;;;;;;;10.65;7.67;;;;;;;-6.81;49.75;101411.92;1697602;84;21258;-77
2023/01/10 02:34:10;;;;;;;13.32;8.90;;;;;;;-6.90;50.01;101413.48;1698332;84;21271;-78
2023/01/10 02:37:26;;;;;;;11.38;7.62;;;;;;;-6.85;49.82;101403.14;1698341;84;21188;-77
2023/01/10 02:40:56;;;;;;;13.32;9.33;;;;;;;-6.94;50.00;101398.05;1697171;83;21242;-77
2023/01/10 02:44:29;;;;;;;9.45;5.37;;;;;;;-6.95;50.05;101389.20;1698280;84;21762;-78
2023/01/10 02:47:35;;;;;;;13.68;6.35;;;;;;;-6.73;49.85;101385.96;1679476;84;21207;-77
2023/01/10 02:50:57;;;;;;;20.17;8.15;;;;;;;-6.65;49.59;101381.32;1679107;84;21243;-78
2023/01/10 02:54:26;;;;;;;7.03;5.35;;;;;;;-6.57;49.34;101372.68;1698322;84;21206;-78
2023/01/10 02:57:48;;;;;;;9.80;6.28;;;;;;;-6.49;49.14;101375.14;1698568;84;21187;-77
2023/01/10 03:01:01;;;;;;;12.10;6.97;;;;;;;-6.41;48.76;101365.13;1684926;85;21239;-77
2023/01/10 03:04:27;;;;;;;10.95;7.00;;;;;;;-6.60;49.18;101362.11;1646625;85;21211;-77
2023/01/10 03:07:51;;;;;;;11.03;5.42;;;;;;;-6.71;48.94;101370.84;1685430;85;21259;-78
2023/01/10 03:11:06;;;;;;;13.28;7.58;;;;;;;-6.83;49.08;101376.02;1685538;85;21208;-78
2023/01/10 03:14:12;;;;;;;8.68;5.58;;;;;;;-6.84;49.20;101382.72;1685400;85;21212;-77
2023/01/10 03:17:18;;;;;;;13.80;7.03;;;;;;;-6.91;49.25;101363.41;1684107;85;21246;-77
2023/01/10 03:20:25;;;;;;;11.00;6.95;;;;;;;-6.99;49.42;101365.37;1685493;85;21278;-78
2023/01/10 03:23:31;;;;;;;11.43;6.92;;;;;;;-6.99;49.58;101367.58;1665672;85;21216;-77
2023/01/10 03:27:24;;;;;;;9.38;5.80;;;;;;;-6.98;49.26;101383.95;1684074;85;21207;-77
2023/01/10 03:30:53;;;;;;;8.10;4.75;;;;;;;-7.10;49.63;101360.34;1685312;85;21259;-77
2023/01/10 03:33:59;;;;;;;9.03;5.47;;;;;;;-7.10;49.74;101356.36;1684603;85;21251;-77
2023/01/10 03:37:16;;;;;;;12.60;8.05;;;;;;;-7.08;49.64;101356.30;1685327;85;21223;-76
2023/01/10 03:40:39;;;;;;;11.00;5.95;;;;;;;-7.14;49.77;101371.97;1684045;84;21268;-76
2023/01/10 03:47:47;;;;;;;20.75;11.65;;;;;;;-7.15;50.07;101371.55;1684234;85;21235;-76
2023/01/10 03:50:53;;;;;;;12.05;7.20;;;;;;;-7.05;49.98;101386.82;1685285;85;21807;-77
2023/01/10 03:53:59;;;;;;;14.10;5.22;;;;;;;-7.00;49.60;101387.58;1684496;85;21714;-77
2023/01/10 03:57:06;;;;;;;11.08;5.12;;;;;;;-7.06;49.62;101377.94;1685362;85;21211;-77
2023/01/10 04:00:13;;;;;;;14.30;6.92;;;;;;;-7.07;49.77;101380.19;1681021;84;21251;-77
2023/01/10 04:03:18;;;;;;;11.38;7.30;;;;;;;-7.15;50.13;101378.20;1678887;85;21215;-77
2023/01/10 04:06:23;;;;;;;13.10;8.18;;;;;;;-7.12;50.18;101371.92;1679194;85;21359;-77
2023/01/10 04:09:28;;;;;;;8.98;4.92;;;;;;;-7.18;50.32;101370.75;1679196;85;21209;-77
2023/01/10 04:12:34;;;;;;;9.85;4.90;;;;;;;-7.13;49.77;101368.39;1677771;84;21256;-80
2023/01/10 04:15:26;;;;;;;12.00;6.03;;;;;;;-7.09;49.77;101370.52;1676640;85;21272;-77
2023/01/10 04:18:32;;;;;;;12.82;6.12;;;;;;;-6.83;49.37;101361.85;1678007;85;21763;-77
2023/01/10 04:21:38;;;;;;;8.45;4.78;;;;;;;-6.74;49.13;101365.14;1677982;85;21212;-77
2023/01/10 04:24:43;;;;;;;12.07;5.22;;;;;;;-6.91;49.17;101366.52;1676647;85;21418;-76
2023/01/10 04:27:49;;;;;;;8.68;5.50;;;;;;;-6.80;49.02;101353.80;1675531;85;21229;-77
2023/01/10 04:30:55;;;;;;;12.33;5.45;;;;;;;-6.90;49.19;101358.95;1666522;86;21212;-77
2023/01/10 04:34:01;;;;;;;18.42;7.40;;;;;;;-6.72;49.17;101362.45;1664970;86;21823;-77
2023/01/10 04:37:07;;;;;;;12.58;7.50;;;;;;;-6.88;49.21;101370.41;1666732;86;21257;-78
2023/01/10 04:40:18;;;;;;;12.75;6.28;;;;;;;-6.66;48.63;101376.05;1665516;84;21293;-78
2023/01/10 04:43:22;;;;;;;12.53;6.85;;;;;;;-6.69;48.90;101381.85;1671619;85;21196;-77
2023/01/10 04:46:28;;;;;;;10.25;6.75;;;;;;;-6.64;48.63;101371.55;1678191;85;21264;-78
2023/01/10 04:49:34;;;;;;;13.43;5.67;;;;;;;-6.57;48.68;101376.67;1676938;85;22530;-77
2023/01/10 04:52:34;;;;;;;9.75;5.00;;;;;;;-6.59;48.52;101373.16;1678709;85;21189;-77
2023/01/10 04:55:40;;;;;;;11.03;4.80;;;;;;;-6.35;48.25;101370.30;1678011;85;22412;-77
2023/01/10 04:58:35;;;;;;;16.25;5.30;;;;;;;-6.06;47.49;101360.13;1677865;85;21180;-77
2023/01/10 05:01:41;;;;;;;11.33;6.58;;;;;;;-6.01;47.26;101363.53;1677620;84;21247;-78
2023/01/10 05:04:46;;;;;;;7.15;4.00;;;;;;;-5.95;47.33;101375.80;1677288;85;21216;-78
2023/01/10 05:07:54;;;;;;;7.50;4.87;;;;;;;-5.77;46.84;101385.87;1677325;85;21228;-77
2023/01/10 05:11:01;;;;;;;14.10;8.28;;;;;;;-5.87;47.00;101376.88;1676848;85;21212;-78
2023/01/10 05:14:06;;;;;;;16.17;8.58;;;;;;;-5.82;46.67;101388.27;1647698;85;21750;-77
2023/01/10 05:17:11;;;;;;;10.93;4.58;;;;;;;-6.35;47.33;101380.05;1637869;87;21623;-77
2023/01/10 05:20:20;;;;;;;16.60;7.97;;;;;;;-6.22;47.33;101382.78;1637788;87;21275;-77
2023/01/10 05:23:28;;;;;;;10.72;6.87;;;;;;;-6.22;47.44;101393.44;1637999;87;21287;-78
2023/01/10 05:26:34;;;;;;;9.25;5.12;;;;;;;-6.35;47.61;101404.02;1637741;87;21782;-77
2023/01/10 05:29:40;;;;;;;14.00;7.53;;;;;;;-6.19;47.13;101390.70;1664888;86;21770;-77
2023/01/10 05:32:45;;;;;;;12.25;7.25;;;;;;;-6.15;47.13;101395.03;1666541;86;21287;-79
2023/01/10 05:35:51;;;;;;;8.28;4.87;;;;;;;-6.28;47.48;101398.95;1665909;84;21241;-79
2023/01/10 05:38:57;;;;;;;13.53;4.30;;;;;;;-6.41;47.40;101397.08;1665153;84;22217;-78
2023/01/10 05:42:04;;;;;;;12.40;6.03;;;;;;;-6.23;47.13;101393.03;1662032;84;21228;-78
2023/01/10 05:45:10;;;;;;;9.03;4.90;;;;;;;-6.23;46.98;101404.55;1665453;84;21267;-78
2023/01/10 05:48:15;;;;;;;12.33;6.78;;;;;;;-6.20;46.84;101407.14;1665009;84;21652;-78
2023/01/10 05:51:20;;;;;;;12.33;6.10;;;;;;;-6.14;46.66;101410.08;1662949;84;21237;-77
2023/01/10 05:54:28;;;;;;;14.85;6.62;;;;;;;-5.84;46.12;101420.73;1663724;84;21223;-78
2023/01/10 05:57:34;;;;;;;7.15;4.92;;;;;;;-5.96;45.96;101417.55;1660308;85;21216;-77
2023/01/10 06:00:41;;;;;;;8.60;5.00;;;;;;;-5.91;45.81;101425.38;1666271;84;21178;-79
2023/01/10 06:03:40;;;;;;;10.98;6.87;;;;;;;-5.98;45.90;101431.81;1667149;84;21227;-80
2023/01/10 06:06:46;;;;;;;13.33;6.50;;;;;;;-5.83;45.95;101430.46;1661711;84;22006;-80
2023/01/10 06:09:52;;;;;;;12.50;4.97;;;;;;;-5.71;45.70;101432.78;1668926;84;21205;-79
2023/01/10 06:12:58;;;;;;;10.80;6.58;;;;;;;-5.72;45.48;101439.03;1664006;84;21217;-79
2023/01/10 06:16:04;;;;;;;15.35;5.92;;;;;;;-5.87;45.82;101431.50;1664360;84;21335;-78
2023/01/10 06:19:10;;;;;;;6.92;4.42;;;;;;;-5.81;45.85;101445.97;1664828;84;21215;-77
2023/01/10 06:22:15;;;;;;;14.07;7.78;;;;;;;-5.82;45.73;101454.42;1648014;84;21201;-78
2023/01/10 06:25:17;;;;;;;11.85;5.95;;;;;;;-5.81;45.77;101449.97;1667012;84;21812;-79
2023/01/10 06:28:23;;;;;;;11.28;6.20;;;;;;;-5.73;46.01;101458.61;1659179;84;21241;-78
2023/01/10 06:31:30;;;;;;;7.05;5.35;;;;;;;-5.75;45.85;101459.10;1662036;85;21786;-79
2023/01/10 06:34:36;;;;;;;12.78;4.85;;;;;;;-5.73;45.78;101457.28;1663749;85;21203;-78
2023/01/10 06:37:43;;;;;;;7.83;3.85;;;;;;;-5.62;45.04;101460.49;1667395;84;21548;-78
2023/01/10 06:40:48;;;;;;;7.55;4.60;;;;;;;-5.66;45.01;101454.37;1638251;87;21236;-78
2023/01/10 06:43:55;;;;;;;7.72;4.05;;;;;;;-5.63;45.05;101461.88;1662051;84;21233;-77
2023/01/10 06:47:00;;;;;;;12.33;4.58;;;;;;;-5.53;44.39;101453.55;1671355;84;21215;-78
2023/01/10 06:50:06;;;;;;;8.35;4.42;;;;;;;-5.49;44.34;101460.55;1657222;84;29242;-78
2023/01/10 06:53:11;;;;;;;9.38;5.70;;;;;;;-5.49;44.13;101462.34;1658594;85;21205;-77
2023/01/10 06:56:10;;;;;;;13.80;4.72;;;;;;;-5.37;44.33;101447.74;1658745;85;21269;-78
2023/01/10 06:59:16;;;;;;;9.75;5.28;;;;;;;-5.38;43.87;101456.20;1660177;85;21796;-77
2023/01/10 07:02:21;;;;;;;15.72;8.88;;;;;;;-5.40;44.15;101460.27;1667979;83;21802;-78
2023/01/10 07:05:28;;;;;;;9.50;5.00;;;;;;;-5.42;44.01;101446.09;1686596;83;21187;-78
2023/01/10 07:08:34;;;;;;;15.45;8.75;;;;;;;-5.30;44.09;101452.85;1692219;83;21198;-77
2023/01/10 07:11:41;;;;;;;14.07;5.35;;;;;;;-5.28;43.87;101462.12;1686344;83;21279;-79
2023/01/10 07:14:46;;;;;;;10.23;5.03;;;;;;;-5.17;44.13;101466.69;1692423;83;21203;-78
2023/01/10 07:17:52;;;;;;;17.40;8.80;;;;;;;-5.12;44.05;101459.88;1686876;83;21483;-79
2023/01/10 07:20:58;;;;;;;13.18;4.85;;;;;;;-4.93;43.92;101463.23;1688023;83;21275;-77
2023/01/10 07:24:06;;;;;;;16.85;11.40;;;;;;;-4.87;43.19;101455.94;1689970;83;21188;-77
2023/01/10 07:27:12;;;;;;;14.98;8.05;;;;;;;-4.75;43.09;101453.75;1688557;84;21212;-78
2023/01/10 07:30:18;;;;;;;9.78;4.83;;;;;;;-4.62;43.06;101454.19;1690031;83;21196;-78
2023/01/10 07:33:27;;;;;;;15.48;9.88;;;;;;;-4.56;42.41;101461.11;1690836;83;21180;-78
2023/01/10 07:36:35;;;;;;;11.40;6.87;;;;;;;-4.33;42.16;101457.66;1684867;83;21283;-79
2023/01/10 07:39:41;;;;;;;22.37;9.88;;;;;;;-4.16;41.87;101464.15;1684115;83;21229;-79
2023/01/10 07:42:46;;;;;;;20.62;14.70;;;;;;;-4.14;42.42;101464.09;1692237;83;21194;-78
2023/01/10 07:45:52;;;;;;;24.27;5.25;;;;;;;-3.98;42.03;101467.97;1660154;85;21220;-77
2023/01/10 07:48:58;;;;;;;12.70;8.53;;;;;;;-3.86;40.91;101459.52;1625656;87;21240;-79
2023/01/10 07:52:07;;;;;;;10.88;5.00;;;;;;;-3.81;41.03;101465.13;1610922;86;2035724;-78
2023/01/10 07:55:12;;;;;;;11.80;5.72;;;;;;;-3.59;40.94;101456.72;1625129;87;21258;-78
2023/01/10 07:58:20;;;;;;;10.03;5.15;;;;;;;-3.65;40.66;101472.53;1627274;87;21335;-78
2023/01/10 08:01:25;;;;;;;12.03;5.62;;;;;;;-3.53;40.45;101465.83;1625229;87;21232;-77
2023/01/10 08:04:30;;;;;;;10.00;6.80;;;;;;;-3.45;40.22;101453.52;1627180;86;21296;-78
2023/01/10 08:07:37;;;;;;;9.10;5.05;;;;;;;-3.46;40.26;101451.78;1639612;87;21252;-79
2023/01/10 08:10:42;;;;;;;12.13;5.37;;;;;;;-3.40;39.67;101459.55;1631811;87;21874;-77
2023/01/10 08:13:47;;;;;;;12.90;4.33;;;;;;;-3.41;39.68;101472.06;1630198;86;21271;-78
2023/01/10 08:16:52;;;;;;;12.07;6.80;;;;;;;-3.36;39.32;101458.04;1645077;86;21213;-78
2023/01/10 08:20:00;;;;;;;6.72;4.67;;;;;;;-3.11;39.79;101463.75;1621839;87;21822;-79
2023/01/10 08:23:06;;;;;;;10.93;6.55;;;;;;;-3.10;39.37;101470.41;1632847;87;21204;-78
2023/01/10 08:26:12;;;;;;;26.40;5.22;;;;;;;-3.04;39.59;101476.45;1637222;86;21234;-78
2023/01/10 08:29:17;;;;;;;11.80;5.08;;;;;;;-3.03;38.70;101453.63;1626733;87;21849;-78
2023/01/10 08:32:23;;;;;;;7.25;4.75;;;;;;;-2.98;39.05;101459.66;1616528;87;21294;-78
2023/01/10 08:35:30;;;;;;;10.93;6.42;;;;;;;-3.00;39.33;101464.69;1634215;86;21225;-78
2023/01/10 08:38:35;;;;;;;11.85;7.12;;;;;;;-2.84;39.34;101458.62;1633035;86;21368;-78
2023/01/10 08:41:41;;;;;;;10.80;4.72;;;;;;;-2.64;39.69;101452.91;1628661;87;21220;-78
2023/01/10 08:44:47;;;;;;;10.05;4.33;;;;;;;-2.59;39.05;101444.21;1629486;87;21932;-78
2023/01/10 08:47:53;;;;;;;15.25;4.67;;;;;;;-2.63;38.54;101450.66;1634820;86;21245;-80
2023/01/10 08:50:58;;;;;;;9.90;5.20;;;;;;;-2.58;38.03;101452.20;1624015;87;37749;-78
2023/01/10 08:54:04;;;;;;;14.55;4.45;;;;;;;-2.52;38.37;101449.73;1656052;85;21951;-78
2023/01/10 08:57:09;;;;;;;5.40;3.87;;;;;;;-2.39;38.47;101448.74;1626611;87;21177;-79
2023/01/10 09:00:17;;;;;;;14.78;8.75;;;;;;;-2.29;38.32;101452.77;1623912;87;21224;-78
2023/01/10 09:03:22;;;;;;;15.03;8.45;;;;;;;-2.23;39.04;101437.74;1652321;85;21201;-78
2023/01/10 09:06:29;;;;;;;15.78;5.20;;;;;;;-2.18;38.54;101440.22;1607022;88;21209;-77
2023/01/10 09:09:34;;;;;;;18.02;8.05;;;;;;;-2.22;37.77;101438.61;1616370;88;21221;-78
2023/01/10 09:12:58;;;;;;;10.65;5.95;;;;;;;-2.23;38.41;101428.83;1621043;87;21248;-78
2023/01/10 09:16:02;;;;;;;14.43;5.90;;;;;;;-2.22;38.75;101431.44;1615822;87;21209;-78
2023/01/10 09:19:08;;;;;;;47.67;7.25;;;;;;;-2.08;37.90;101414.74;1596220;88;21249;-79
2023/01/10 09:22:13;;;;;;;15.75;6.03;;;;;;;-2.01;37.43;101414.88;1611164;88;22436;-78
2023/01/10 09:25:19;;;;;;;16.17;6.55;;;;;;;-2.01;38.02;101424.27;1597481;88;21727;-78
2023/01/10 09:28:25;;;;;;;7.15;3.77;;;;;;;-2.03;38.88;101423.45;1610255;88;21570;-78
2023/01/10 09:31:30;;;;;;;7.28;5.40;;;;;;;-1.94;38.13;101415.46;1595388;88;21975;-78
2023/01/10 09:34:36;;;;;;;13.53;6.15;;;;;;;-1.79;37.63;101405.37;1612700;87;21198;-79
2023/01/10 09:37:42;;;;;;;20.65;8.70;;;;;;;-1.76;37.92;101413.76;1627052;87;21355;-79
2023/01/10 09:41:08;;;;;;;12.35;6.87;;;;;;;-1.64;38.47;101407.84;1626357;87;21198;-78
2023/01/10 09:44:27;;;;;;;18.50;8.00;;;;;;;-1.70;37.77;101415.67;1621984;87;21242;-78
2023/01/10 09:47:56;;;;;;;10.03;5.65;;;;;;;-1.63;37.86;101429.22;1624001;87;22433;-78
2023/01/10 09:51:52;;;;;;;13.13;7.70;;;;;;;-1.58;37.88;101421.82;1616339;87;28780;-77
2023/01/10 09:54:58;;;;;;;18.42;6.53;;;;;;;-1.52;37.71;101423.81;1623404;87;21238;-79
2023/01/10 09:58:09;;;;;;;7.08;3.80;;;;;;;-1.65;37.83;101423.03;1622188;87;21204;-78
2023/01/10 10:01:22;;;;;;;12.90;5.33;;;;;;;-1.81;37.81;101418.86;1611357;87;22163;-79
2023/01/10 10:04:45;;;;;;;16.90;6.58;;;;;;;-1.76;38.51;101445.47;1613286;87;21264;-80
2023/01/10 10:08:03;;;;;;;9.60;5.10;;;;;;;-1.74;38.32;101415.44;1628441;87;21231;-78
2023/01/10 10:11:40;;;;;;;10.58;6.28;;;;;;;-1.76;38.42;101421.33;1634861;86;22600;-78
2023/01/10 10:15:14;;;;;;;12.18;5.00;;;;;;;-1.68;38.33;101423.67;1631874;87;21325;-78
2023/01/10 10:18:36;;;;;;;14.05;5.80;;;;;;;-1.69;38.59;101420.59;1629508;87;21225;-78
2023/01/10 10:22:16;;;;;;;8.68;4.47;;;;;;;-1.33;37.61;101392.47;1626722;87;21215;-77
2023/01/10 10:26:06;;;;;;;9.75;5.97;;;;;;;-1.36;37.39;101401.56;1629955;87;21360;-78
2023/01/10 10:30:05;;;;;;;5.83;4.12;;;;;;;-1.32;37.25;101388.39;1617395;87;21250;-78
2023/01/10 10:33:20;;;;;;;14.17;4.33;;;;;;;-1.50;37.40;101385.72;1637042;86;21334;-79
2023/01/10 10:36:49;;;;;;;7.50;3.12;;;;;;;-1.41;37.04;101384.80;1626798;87;22016;-79
2023/01/10 10:40:06;;;;;;;13.18;4.08;;;;;;;-1.37;37.42;101402.95;1625658;85;21267;-79
2023/01/10 10:43:24;;;;;;;7.42;4.33;;;;;;;-1.26;36.80;101406.48;1630234;87;21823;-78
2023/01/10 10:46:30;;;;;;;8.73;3.90;;;;;;;-1.28;36.75;101402.51;1625142;87;21846;-79
2023/01/10 10:49:34;;;;;;;16.25;4.60;;;;;;;-1.25;36.67;101389.42;1606612;87;21302;-79
2023/01/10 10:52:33;;;;;;;7.40;4.58;;;;;;;-1.22;36.93;101379.41;1609134;87;27805;-80
2023/01/10 10:55:22;;;;;;;7.67;4.75;;;;;;;-1.19;36.64;101387.30;1652475;85;21211;-77
2023/01/10 10:58:30;;;;;;;7.85;4.10;;;;;;;-1.10;36.88;101380.14;1654612;85;21250;-78
2023/01/10 11:01:47;;;;;;;5.58;4.12;;;;;;;-0.99;36.54;101395.70;1630706;87;21239;-79
2023/01/10 11:05:08;;;;;;;15.48;4.30;;;;;;;-1.00;36.81;101399.34;1625190;87;21211;-78
2023/01/10 11:08:15;;;;;;;6.37;3.62;;;;;;;-0.99;37.33;101397.05;1605156;86;21333;-79
2023/01/10 11:11:43;;;;;;;;;;;;;;;-0.94;36.95;101410.25;1640310;86;21209;-79
2023/01/10 11:14:56;;;;;;;8.48;4.33;;;;;;;-1.00;37.60;101426.68;1643986;86;20273;-78
2023/01/10 11:18:26;;;;;;;8.33;4.60;;;;;;;-0.99;36.63;101425.25;1641474;86;21208;-78
2023/01/10 11:21:35;;;;;;;8.30;4.35;;;;;;;-0.92;36.37;101428.05;1634730;86;21252;-79
2023/01/10 11:24:46;;;;;;;6.47;3.60;;;;;;;-0.86;36.56;101416.13;1634359;86;22206;-80
2023/01/10 11:28:01;;;;;;;8.78;4.28;;;;;;;-0.97;36.68;101423.86;1621669;86;21226;-79
2023/01/10 11:31:09;;;;;;;11.10;4.37;;;;;;;-1.08;37.15;101417.20;1619373;87;21280;-78
2023/01/10 11:34:34;;;;;;;13.50;5.15;;;;;;;-1.13;37.11;101448.78;1626001;87;21297;-78
2023/01/10 11:37:42;;;;;;;8.73;4.05;;;;;;;-1.13;36.72;101418.34;1628904;86;21381;-80
2023/01/10 11:41:12;;;;;;;7.75;3.52;;;;;;;-1.12;36.62;101408.89;1630948;86;21795;-79
2023/01/10 11:44:30;;;;;;;10.15;3.67;;;;;;;-1.10;36.37;101437.00;1633902;86;21282;-80
2023/01/10 11:47:36;;;;;;;9.10;3.98;;;;;;;-1.14;36.80;101414.80;1632554;86;21207;-77
2023/01/10 11:50:45;;;;;;;5.53;4.08;;;;;;;-1.07;36.55;101432.36;1628140;86;21298;-78
2023/01/10 11:53:52;;;;;;;7.97;4.80;;;;;;;-0.96;36.29;101432.30;1639615;86;21234;-78
2023/01/10 11:57:17;;;;;;;7.65;4.50;;;;;;;-0.95;36.37;101427.32;1629579;86;21216;-78
2023/01/10 12:00:24;;;;;;;7.50;4.62;;;;;;;-0.86;36.66;101433.11;1615650;87;21867;-79
2023/01/10 12:03:41;;;;;;;5.05;3.10;;;;;;;-0.83;36.62;101442.37;1629173;86;22267;-79
2023/01/10 12:06:52;;;;;;;7.17;4.00;;;;;;;-0.83;35.57;101438.34;1628823;86;21242;-80
2023/01/10 12:10:06;;;;;;;5.40;3.37;;;;;;;-0.80;35.89;101408.65;1644439;86;21883;-80
2023/01/10 12:13:22;;;;;;;8.30;4.05;;;;;;;-0.71;36.07;101427.91;1643015;85;21236;-80
2023/01/10 12:16:40;;;;;;;7.78;4.15;;;;;;;-0.77;35.64;101427.28;1637407;85;22585;-79
2023/01/10 12:19:47;;;;;;;11.93;4.17;;;;;;;-0.81;35.28;101421.66;1642256;86;21204;-78
2023/01/10 12:22:52;;;;;;;;;;;;;;;-0.81;35.66;101412.73;1642851;86;21173;-79
2023/01/10 12:26:07;;;;;;;15.43;4.40;;;;;;;-0.77;36.08;101431.31;1858512;76;22211;-77
2023/01/10 12:29:22;;;;;;;4.15;2.90;;;;;;;-0.72;35.62;101424.36;1798559;77;21731;-79
2023/01/10 12:32:32;;;;;;;6.72;3.10;;;;;;;-0.70;35.58;101443.11;1749595;80;21220;-78
2023/01/10 12:35:54;;;;;;;7.28;3.25;;;;;;;-0.67;35.70;101438.44;1745426;80;21187;-78
2023/01/10 12:39:24;;;;;;;6.08;3.40;;;;;;;-0.58;35.66;101445.16;1737291;80;21269;-77
2023/01/10 12:46:29;;;;;;;4.45;3.60;;;;;;;-0.68;35.61;101452.82;1739875;81;21838;-80
2023/01/10 12:49:49;;;;;;;6.25;3.58;;;;;;;-0.47;35.70;101446.86;1731387;81;21184;-79
2023/01/10 12:53:19;;;;;;;6.85;3.80;;;;;;;-0.54;35.53;101445.41;1724433;82;22074;-78
2023/01/10 12:56:26;;;;;;;3.40;2.25;;;;;;;-0.54;36.02;101433.31;1728737;82;21819;-80
2023/01/10 12:59:48;;;;;;;9.75;4.95;;;;;;;-0.69;35.94;101447.53;1721468;82;21188;-78
2023/01/10 13:02:53;;;;;;;7.10;3.25;;;;;;;-0.77;36.69;101443.40;1716319;81;21176;-78
2023/01/10 13:05:59;;;;;;;10.18;3.55;;;;;;;-0.93;36.67;101461.71;1748134;81;21356;-80
2023/01/10 13:09:09;;;;;;;12.60;3.75;;;;;;;-0.96;36.29;101446.59;1722406;81;21267;-78
2023/01/10 13:12:40;;;;;;;14.25;5.72;;;;;;;-0.88;36.60;101455.16;1720299;81;21162;-79
2023/01/10 13:15:55;;;;;;;8.28;4.42;;;;;;;-0.97;36.62;101460.11;1703016;83;21831;-79
2023/01/10 13:19:20;;;;;;;7.37;3.87;;;;;;;-0.90;36.82;101481.20;1721554;81;21296;-80
2023/01/10 13:22:29;;;;;;;7.72;4.80;;;;;;;-0.96;35.99;101466.74;1731454;81;21633;-79
2023/01/10 13:25:44;;;;;;;7.00;3.30;;;;;;;-1.06;36.53;101462.77;1712756;82;21277;-80
2023/01/10 13:29:07;;;;;;;7.37;4.33;;;;;;;-1.09;36.31;101474.98;1730359;82;21508;-78
2023/01/10 13:32:28;;;;;;;20.62;4.55;;;;;;;-1.07;36.70;101487.41;1717787;82;21708;-78
2023/01/10 13:35:34;;;;;;;4.17;2.75;;;;;;;-1.25;36.83;101472.65;1709728;82;21244;-78
2023/01/10 13:39:08;;;;;;;6.30;3.20;;;;;;;-1.34;36.67;101461.39;1713403;82;21776;-78
2023/01/10 13:45:42;;;;;;;10.32;3.65;;;;;;;-1.32;37.68;101471.61;1760682;79;21188;-79
2023/01/10 13:48:47;;;;;;;4.47;2.95;;;;;;;-1.40;37.58;101468.41;1758655;79;21247;-79
2023/01/10 13:52:28;;;;;;;9.48;3.90;;;;;;;-1.73;38.32;101460.09;1701851;82;21258;-79
2023/01/10 13:55:41;;;;;;;12.28;4.80;;;;;;;-1.86;38.49;101479.02;1710890;82;21256;-78
2023/01/10 14:05:23;;;;;;;8.58;3.85;;;;;;;-2.03;38.36;101473.52;1770735;81;21755;-78
2023/01/10 14:08:29;;;;;;;8.33;5.25;;;;;;;-2.14;38.88;101473.53;1770879;81;21150;-79
2023/01/10 14:11:52;;;;;;;7.20;3.77;;;;;;;-2.19;39.32;101485.39;1771052;81;21150;-78
2023/01/10 14:15:04;;;;;;;14.90;4.15;;;;;;;-2.25;38.97;101477.63;1770567;81;21162;-79
2023/01/10 14:18:29;;;;;;;4.62;3.15;;;;;;;-2.50;38.68;101495.20;1770527;81;21166;-79
2023/01/10 14:21:36;;;;;;;10.55;5.80;;;;;;;-2.39;38.86;101495.16;1759593;81;21204;-79
2023/01/10 14:24:51;;;;;;;14.13;8.85;;;;;;;-2.49;39.03;101487.12;1764933;81;21173;-79
2023/01/10 14:27:58;;;;;;;9.63;5.92;;;;;;;-2.58;39.81;101495.53;1717953;82;21211;-78
2023/01/10 14:31:27;;;;;;;5.42;3.15;;;;;;;-2.55;40.71;101503.42;1778420;80;21229;-78
2023/01/10 14:34:37;;;;;;;6.00;4.08;;;;;;;-2.69;40.63;101521.87;1742341;82;21224;-78
2023/01/10 14:37:52;;;;;;;6.83;4.20;;;;;;;-2.64;39.98;101523.89;1779872;80;22406;-77
2023/01/10 14:41:01;;;;;;;7.25;4.03;;;;;;;-2.71;40.13;101530.45;1742711;82;21969;-78
2023/01/10 14:44:34;;;;;;;12.82;3.15;;;;;;;-2.71;40.36;101524.63;1780154;80;21189;-77
2023/01/10 14:47:41;;;;;;;7.35;4.12;;;;;;;-2.85;41.31;101522.50;1742249;82;21228;-79
2023/01/10 14:50:47;;;;;;;4.53;2.37;;;;;;;-3.01;41.80;101534.77;1780020;80;22315;-78
2023/01/10 14:53:54;;;;;;;4.30;2.72;;;;;;;-3.25;42.00;101537.02;1742853;82;21176;-77
2023/01/10 14:57:00;;;;;;;6.92;3.80;;;;;;;-3.31;42.30;101549.30;1779825;80;21177;-78
2023/01/10 15:00:20;;;;;;;8.95;3.40;;;;;;;-3.49;42.88;101541.50;1744085;82;21699;-77
2023/01/10 15:03:30;;;;;;;10.45;3.58;;;;;;;-3.53;44.05;101551.42;1781369;80;21177;-78
2023/01/10 15:06:30;;;;;;;8.40;3.20;;;;;;;-3.54;44.23;101546.14;1743721;82;21248;-77